createdAt,value
2019-01-06T00:02:49.210Z,2
2019-01-06T00:07:51.681Z,2
2019-01-06T00:12:54.131Z,1
2019-01-06T00:17:56.592Z,1
2019-01-06T00:22:59.097Z,1
2019-01-06T00:28:01.594Z,2
2019-01-06T00:33:03.983Z,4
2019-01-06T00:38:06.418Z,20
2019-01-06T00:43:08.875Z,8
2019-01-06T00:48:11.327Z,6
2019-01-06T00:53:13.794Z,5
2019-01-06T00:58:16.303Z,4
2019-01-06T01:03:18.701Z,7
2019-01-06T01:08:21.173Z,6
2019-01-06T01:13:23.631Z,7
2019-01-06T01:18:26.083Z,7
2019-01-06T01:23:28.540Z,7
2019-01-06T01:28:30.992Z,8
2019-01-06T01:33:33.445Z,11
2019-01-06T01:38:35.915Z,7
2019-01-06T01:43:38.454Z,13
2019-01-06T01:48:40.847Z,11
2019-01-06T01:53:43.286Z,6
2019-01-06T01:58:45.742Z,4
2019-01-06T02:03:48.190Z,5
2019-01-06T02:08:50.647Z,4
2019-01-06T02:13:53.104Z,4
2019-01-06T02:18:55.571Z,6
2019-01-06T02:23:58.020Z,3
2019-01-06T02:29:00.515Z,3
2019-01-06T02:34:02.924Z,1
2019-01-06T02:39:05.380Z,6
2019-01-06T02:44:07.837Z,3
2019-01-06T02:49:10.305Z,2
2019-01-06T02:54:12.793Z,2
2019-01-06T02:59:15.225Z,6
2019-01-06T03:04:17.665Z,1
2019-01-06T03:09:20.133Z,3
2019-01-06T03:14:22.614Z,2
2019-01-06T03:19:25.065Z,3
2019-01-06T03:24:27.525Z,6
2019-01-06T03:29:29.980Z,2
2019-01-06T03:34:32.509Z,3
2019-01-06T03:39:34.894Z,2
2019-01-06T03:44:37.373Z,6
2019-01-06T03:49:39.838Z,5
2019-01-06T03:54:42.291Z,1
2019-01-06T03:59:44.770Z,2
2019-01-06T04:04:47.210Z,2
2019-01-06T04:09:49.669Z,2
2019-01-06T04:14:52.138Z,2
2019-01-06T04:19:54.589Z,2
2019-01-06T04:24:57.050Z,1
2019-01-06T04:29:59.525Z,3
2019-01-06T04:35:02.116Z,1
2019-01-06T04:40:04.442Z,2
2019-01-06T04:45:06.910Z,1
2019-01-06T04:50:09.381Z,5
2019-01-06T04:55:11.837Z,3
2019-01-06T05:00:14.322Z,4
2019-01-06T05:05:16.805Z,1
2019-01-06T05:10:19.194Z,1
2019-01-06T05:15:21.664Z,5
2019-01-06T05:20:24.147Z,5
2019-01-06T05:25:26.684Z,2
2019-01-06T05:30:29.086Z,1
2019-01-06T05:35:31.492Z,1
2019-01-06T05:40:33.999Z,3
2019-01-06T05:45:36.425Z,3
2019-01-06T05:50:38.941Z,2
2019-01-06T05:55:41.418Z,3
2019-01-06T06:00:43.931Z,5
2019-01-06T06:05:46.321Z,2
2019-01-06T06:10:48.758Z,3
2019-01-06T06:15:51.182Z,2
2019-01-06T06:20:53.632Z,2
2019-01-06T06:25:56.100Z,2
2019-01-06T06:30:58.692Z,4
2019-01-06T06:36:01.029Z,3
2019-01-06T06:41:03.485Z,3
2019-01-06T06:46:05.956Z,8
2019-01-06T06:51:08.413Z,7
2019-01-06T06:56:10.912Z,9
2019-01-06T07:01:13.322Z,5
2019-01-06T07:06:15.824Z,4
2019-01-06T07:11:18.240Z,4
2019-01-06T07:16:20.711Z,5
2019-01-06T07:21:23.159Z,6
2019-01-06T07:26:25.748Z,5
2019-01-06T07:31:28.112Z,6
2019-01-06T07:36:30.539Z,8
2019-01-06T07:41:33.064Z,8
2019-01-06T07:46:35.448Z,5
2019-01-06T07:51:37.902Z,5
2019-01-06T07:56:40.388Z,6
2019-01-06T08:01:42.888Z,6
2019-01-06T08:06:45.286Z,12
2019-01-06T08:11:47.924Z,7
2019-01-06T08:16:50.218Z,11
2019-01-06T08:21:52.650Z,5
2019-01-06T08:26:55.109Z,6
2019-01-06T08:31:57.572Z,5
2019-01-06T08:37:00.042Z,6
2019-01-06T08:42:02.511Z,5
2019-01-06T08:47:04.959Z,7
2019-01-06T08:52:07.444Z,7
2019-01-06T08:57:09.857Z,6
2019-01-06T09:02:12.328Z,6
2019-01-06T09:07:14.775Z,4
2019-01-06T09:12:17.266Z,5
2019-01-06T09:17:19.705Z,7
2019-01-06T09:22:22.193Z,5
2019-01-06T09:27:24.611Z,6
2019-01-06T09:32:27.080Z,4
2019-01-06T09:37:29.525Z,3
2019-01-06T09:42:32.026Z,4
2019-01-06T09:47:34.454Z,4
2019-01-06T09:52:36.891Z,5
2019-01-06T09:57:39.361Z,3
2019-01-06T10:02:41.827Z,6
2019-01-06T10:07:44.269Z,3
2019-01-06T10:12:46.729Z,3
2019-01-06T10:17:49.192Z,4
2019-01-06T10:22:51.639Z,6
2019-01-06T10:27:54.167Z,4
2019-01-06T10:32:56.555Z,4
2019-01-06T10:37:59.020Z,4
2019-01-06T10:43:01.463Z,5
2019-01-06T10:48:03.954Z,4
2019-01-06T10:53:06.378Z,7
2019-01-06T10:58:08.836Z,3
2019-01-06T11:03:11.325Z,3
2019-01-06T11:08:13.761Z,5
2019-01-06T11:13:16.259Z,6
2019-01-06T11:18:18.666Z,4
2019-01-06T11:23:21.133Z,4
2019-01-06T11:28:23.838Z,7
2019-01-06T11:33:26.052Z,5
2019-01-06T11:38:28.501Z,4
2019-01-06T11:43:30.948Z,5
2019-01-06T11:48:33.437Z,3
2019-01-06T11:53:35.856Z,9
2019-01-06T11:58:38.318Z,3
2019-01-06T12:03:40.785Z,6
2019-01-06T12:08:43.230Z,4
2019-01-06T12:13:45.691Z,5
2019-01-06T12:18:48.145Z,4
2019-01-06T12:23:50.641Z,4
2019-01-06T12:28:53.055Z,4
2019-01-06T12:33:55.601Z,5
2019-01-06T12:38:58.007Z,5
2019-01-06T12:44:00.425Z,6
2019-01-06T12:49:02.907Z,3
2019-01-06T12:54:05.355Z,3
2019-01-06T12:59:07.817Z,4
2019-01-06T13:04:10.256Z,6
2019-01-06T13:09:12.714Z,2
2019-01-06T13:14:15.196Z,2
2019-01-06T13:19:17.629Z,5
2019-01-06T13:24:20.096Z,4
2019-01-06T13:29:22.588Z,4
2019-01-06T13:34:24.999Z,4
2019-01-06T13:39:27.500Z,6
2019-01-06T13:44:29.923Z,4
2019-01-06T13:49:32.468Z,5
2019-01-06T13:54:34.843Z,3
2019-01-06T13:59:37.304Z,5
2019-01-06T14:04:41.608Z,5
2019-01-06T14:09:42.243Z,4
2019-01-06T14:14:44.664Z,5
2019-01-06T14:19:47.147Z,4
2019-01-06T14:24:49.595Z,3
2019-01-06T14:29:52.036Z,6
2019-01-06T14:34:54.494Z,6
2019-01-06T14:39:56.951Z,7
2019-01-06T14:44:59.422Z,6
2019-01-06T14:50:01.990Z,9
2019-01-06T14:55:04.337Z,5
2019-01-06T15:00:06.804Z,5
2019-01-06T15:05:09.257Z,5
2019-01-06T15:10:11.757Z,7
2019-01-06T15:15:14.162Z,8
2019-01-06T15:20:16.790Z,5
2019-01-06T15:25:19.087Z,5
2019-01-06T15:30:21.550Z,5
2019-01-06T15:35:23.995Z,8
2019-01-06T15:40:26.444Z,7
2019-01-06T15:45:28.939Z,7
2019-01-06T15:50:31.361Z,5
2019-01-06T15:55:33.807Z,5
2019-01-06T16:00:36.461Z,7
2019-01-06T16:05:38.748Z,10
2019-01-06T16:10:41.754Z,7
2019-01-06T16:15:43.640Z,13
2019-01-06T16:20:46.156Z,9
2019-01-06T16:25:48.561Z,10
2019-01-06T16:30:51.026Z,13
2019-01-06T16:35:53.501Z,14
2019-01-06T16:40:55.957Z,12
2019-01-06T16:45:58.392Z,12
2019-01-06T16:51:00.869Z,9
2019-01-06T16:56:03.325Z,11
2019-01-06T17:01:05.813Z,12
2019-01-06T17:06:08.261Z,15
2019-01-06T17:11:10.687Z,17
2019-01-06T17:16:13.127Z,22
2019-01-06T17:21:15.600Z,19
2019-01-06T17:26:18.042Z,19
2019-01-06T17:31:20.497Z,20
2019-01-06T17:36:23.003Z,16
2019-01-06T17:41:25.411Z,18
2019-01-06T17:46:27.869Z,18
2019-01-06T17:51:30.351Z,18
2019-01-06T17:56:32.812Z,22
2019-01-06T18:01:35.540Z,18
2019-01-06T18:06:38.831Z,19
2019-01-06T18:11:40.220Z,14
2019-01-06T18:16:42.642Z,13
2019-01-06T18:21:45.099Z,14
2019-01-06T18:26:47.618Z,20
2019-01-06T18:31:50.016Z,18
2019-01-06T18:36:52.524Z,22
2019-01-06T18:41:54.929Z,21
2019-01-06T18:46:57.392Z,22
2019-01-06T18:51:59.865Z,22
2019-01-06T18:57:02.365Z,22
2019-01-06T19:02:04.891Z,24
2019-01-06T19:07:07.219Z,24
2019-01-06T19:12:09.673Z,21
2019-01-06T19:17:12.132Z,17
2019-01-06T19:22:14.578Z,19
2019-01-06T19:27:17.127Z,19
2019-01-06T19:32:19.492Z,16
2019-01-06T19:37:21.961Z,14
2019-01-06T19:42:24.463Z,13
2019-01-06T19:47:26.880Z,15
2019-01-06T19:52:29.332Z,15
2019-01-06T19:57:32.076Z,14
2019-01-06T20:02:34.226Z,12
2019-01-06T20:07:36.691Z,14
2019-01-06T20:12:39.254Z,9
2019-01-06T20:17:41.629Z,11
2019-01-06T20:22:44.059Z,10
2019-01-06T20:27:46.609Z,10
2019-01-06T20:32:48.984Z,9
2019-01-06T20:37:51.438Z,9
2019-01-06T20:42:53.909Z,11
2019-01-06T20:47:56.351Z,10
2019-01-06T20:52:58.926Z,8
2019-01-06T20:58:02.390Z,9
2019-01-06T21:03:03.737Z,10
2019-01-06T21:08:06.186Z,8
2019-01-06T21:13:08.647Z,8
2019-01-06T21:18:11.101Z,13
2019-01-06T21:23:14.575Z,13
2019-01-06T21:28:16.019Z,17
2019-01-06T21:33:18.498Z,21
2019-01-06T21:38:20.928Z,22
2019-01-06T21:43:23.371Z,20
2019-01-06T21:48:25.840Z,22
2019-01-06T21:53:28.319Z,21
2019-01-06T21:58:30.741Z,24
2019-01-06T22:03:33.206Z,24
2019-01-06T22:08:35.670Z,23
2019-01-06T22:13:38.121Z,24
2019-01-06T22:18:40.581Z,26
2019-01-06T22:23:43.049Z,26
2019-01-06T22:28:45.486Z,25
2019-01-06T22:33:47.993Z,21
2019-01-06T22:38:50.413Z,25
2019-01-06T22:43:52.880Z,18
2019-01-06T22:48:55.336Z,16
2019-01-06T22:53:57.804Z,14
2019-01-06T22:59:00.231Z,15
2019-01-06T23:04:02.699Z,10
2019-01-06T23:09:05.156Z,10
2019-01-06T23:14:07.625Z,9
2019-01-06T23:19:10.090Z,8
2019-01-06T23:24:12.816Z,7
2019-01-06T23:29:14.968Z,8
2019-01-06T23:34:17.456Z,7
2019-01-06T23:39:19.895Z,5
2019-01-06T23:44:22.350Z,5
2019-01-06T23:49:24.807Z,4
2019-01-06T23:54:27.258Z,2
2019-01-06T23:59:29.717Z,2
